createdAt,value
2023-03-21T00:21:38.398Z,99.90
2023-03-21T00:38:46.428Z,99.90
2023-03-21T00:49:07.921Z,1.00
2023-03-21T00:54:18.574Z,9.60
2023-03-21T00:59:31.725Z,1.00
2023-03-21T01:04:49.715Z,1.00
2023-03-21T01:09:54.425Z,1.00
2023-03-21T01:14:47.329Z,99.90
2023-03-21T01:19:50.178Z,99.90
2023-03-21T01:24:52.080Z,1.00
2023-03-21T01:29:40.140Z,99.90
2023-03-21T01:34:48.667Z,99.90
2023-03-21T01:39:36.800Z,99.90
2023-03-21T01:44:22.658Z,99.90
2023-03-21T01:49:12.406Z,99.90
2023-03-21T01:54:10.050Z,99.90
2023-03-21T01:59:06.812Z,99.90
2023-03-21T02:04:40.503Z,99.90
2023-03-21T02:09:54.885Z,99.90
2023-03-21T02:14:56.647Z,99.90
2023-03-21T02:20:58.693Z,1.00
2023-03-21T02:26:46.429Z,99.90
2023-03-21T02:32:19.992Z,99.90
2023-03-21T02:37:37.590Z,1.00
2023-03-21T02:42:33.799Z,1.00
2023-03-21T02:47:31.334Z,99.90
2023-03-21T02:52:39.177Z,1.00
2023-03-21T02:57:46.743Z,1.00
2023-03-21T03:03:09.696Z,1.00
2023-03-21T03:08:43.208Z,1.00
2023-03-21T03:14:21.039Z,1.00
2023-03-21T03:29:27.657Z,99.90
2023-03-21T03:34:24.966Z,99.90
2023-03-21T03:39:17.961Z,99.90
2023-03-21T03:44:37.666Z,95.20
2023-03-21T03:49:40.161Z,1.00
2023-03-21T03:54:33.117Z,1.00
2023-03-21T03:59:35.576Z,1.00
2023-03-21T04:04:38.475Z,1.00
2023-03-21T04:09:40.897Z,1.00
2023-03-21T04:14:42.062Z,1.00
2023-03-21T04:19:34.051Z,99.90
2023-03-21T04:24:22.596Z,99.90
2023-03-21T04:29:09.610Z,44.90
2023-03-21T04:34:29.628Z,1.00
2023-03-21T04:39:17.133Z,1.00
2023-03-21T04:44:04.421Z,24.80
2023-03-21T04:48:52.120Z,99.90
2023-03-21T04:53:45.140Z,99.90
2023-03-21T04:58:30.459Z,1.00
2023-03-21T05:08:56.725Z,99.90
2023-03-21T05:13:40.493Z,99.90
2023-03-21T05:18:34.837Z,99.90
2023-03-21T05:23:31.681Z,99.90
2023-03-21T05:28:19.922Z,70.60
2023-03-21T05:33:13.368Z,99.90
2023-03-21T05:37:57.143Z,99.90
2023-03-21T05:42:47.142Z,99.90
2023-03-21T05:47:51.705Z,99.90
2023-03-21T05:52:38.205Z,99.90
2023-03-21T05:57:41.042Z,99.90
2023-03-21T06:02:45.822Z,1.00
2023-03-21T06:08:07.195Z,1.00
2023-03-21T06:12:53.799Z,1.00
2023-03-21T06:18:12.280Z,1.00
2023-03-21T06:23:02.193Z,1.00
2023-03-21T06:27:49.089Z,1.00
2023-03-21T06:32:37.312Z,1.00
2023-03-21T06:37:41.239Z,99.90
2023-03-21T06:42:32.608Z,1.00
2023-03-21T06:47:30.951Z,99.90
2023-03-21T06:52:20.680Z,99.90
2023-03-21T06:57:08.411Z,99.90
2023-03-21T07:01:56.882Z,99.90
2023-03-21T07:06:46.196Z,99.90
2023-03-21T07:11:33.963Z,1.00
2023-03-21T07:16:22.427Z,1.00
2023-03-21T07:21:08.265Z,1.00
2023-03-21T07:26:11.448Z,1.00
2023-03-21T07:31:16.323Z,1.00
2023-03-21T07:36:10.895Z,1.00
2023-03-21T07:41:28.864Z,1.00
2023-03-21T07:46:28.353Z,1.00
2023-03-21T07:51:22.571Z,1.00
2023-03-21T07:56:07.446Z,1.00
2023-03-21T08:00:55.796Z,1.00
2023-03-21T08:05:39.774Z,1.00
2023-03-21T08:10:34.684Z,1.00
2023-03-21T08:15:18.204Z,1.00
2023-03-21T08:20:09.317Z,1.00
2023-03-21T08:24:53.178Z,1.00
2023-03-21T08:29:42.497Z,1.00
2023-03-21T08:34:28.989Z,1.00
2023-03-21T08:39:16.332Z,1.00
2023-03-21T08:44:04.548Z,1.00
2023-03-21T08:48:58.655Z,1.00
2023-03-21T08:53:44.213Z,1.00
2023-03-21T08:58:28.596Z,1.00
2023-03-21T09:03:21.838Z,1.00
2023-03-21T09:08:07.201Z,1.00
2023-03-21T09:12:53.919Z,1.00
2023-03-21T09:17:44.214Z,1.00
2023-03-21T09:22:28.381Z,1.00
2023-03-21T09:27:33.434Z,1.00
2023-03-21T09:32:22.470Z,1.00
2023-03-21T09:37:13.413Z,1.00
2023-03-21T09:42:17.935Z,1.00
2023-03-21T09:47:20.925Z,1.00
2023-03-21T09:52:21.531Z,1.00
2023-03-21T09:57:26.609Z,1.00
2023-03-21T10:02:43.381Z,1.00
2023-03-21T10:07:55.082Z,1.00
2023-03-21T10:12:57.957Z,1.00
2023-03-21T10:17:52.434Z,1.00
2023-03-21T10:22:43.582Z,1.00
2023-03-21T10:27:33.950Z,1.00
2023-03-21T10:32:20.386Z,1.00
2023-03-21T10:37:26.014Z,1.00
2023-03-21T10:42:26.241Z,1.00
2023-03-21T10:47:21.024Z,1.00
2023-03-21T10:52:08.314Z,1.00
2023-03-21T10:56:58.709Z,1.00
2023-03-21T11:01:47.058Z,1.00
2023-03-21T11:06:59.825Z,1.00
2023-03-21T11:11:52.499Z,1.00
2023-03-21T11:16:41.991Z,1.00
2023-03-21T11:21:29.654Z,1.00
2023-03-21T11:26:20.761Z,1.00
2023-03-21T11:31:15.839Z,1.00
2023-03-21T11:36:40.218Z,1.00
2023-03-21T11:41:25.499Z,1.00
2023-03-21T11:46:15.927Z,1.00
2023-03-21T11:51:05.567Z,1.00
2023-03-21T11:56:25.985Z,1.00
2023-03-21T12:01:23.065Z,1.00
2023-03-21T12:06:27.143Z,1.00
2023-03-21T12:11:21.634Z,1.00
2023-03-21T12:16:36.404Z,1.00
2023-03-21T12:21:55.028Z,1.00
2023-03-21T12:26:50.425Z,1.00
2023-03-21T12:32:05.523Z,1.00
2023-03-21T12:37:08.282Z,1.00
2023-03-21T12:42:13.592Z,1.00
2023-03-21T12:47:16.418Z,1.00
2023-03-21T12:52:10.301Z,1.00
2023-03-21T12:57:08.124Z,1.00
2023-03-21T13:02:27.547Z,1.00
2023-03-21T13:07:20.178Z,1.00
2023-03-21T13:12:21.864Z,1.00
2023-03-21T13:17:58.271Z,1.00
2023-03-21T13:22:45.365Z,1.00
2023-03-21T13:27:35.605Z,1.00
2023-03-21T13:32:37.526Z,1.00
2023-03-21T13:37:28.227Z,1.00
2023-03-21T13:42:46.310Z,1.00
2023-03-21T13:48:03.913Z,1.00
2023-03-21T13:53:25.215Z,1.00
2023-03-21T13:58:33.533Z,1.00
2023-03-21T14:03:20.038Z,1.00
2023-03-21T14:08:15.809Z,1.00
2023-03-21T14:13:22.177Z,1.00
2023-03-21T14:18:28.282Z,1.00
2023-03-21T14:23:31.928Z,1.00
2023-03-21T14:28:22.749Z,1.00
2023-03-21T14:33:15.097Z,1.00
2023-03-21T14:43:34.447Z,1.00
2023-03-21T14:48:19.453Z,1.00
2023-03-21T14:53:23.516Z,1.00
2023-03-21T14:58:34.201Z,1.00
2023-03-21T15:03:21.341Z,1.00
2023-03-21T15:08:10.544Z,1.00
2023-03-21T15:12:55.695Z,1.00
2023-03-21T15:17:43.866Z,1.00
2023-03-21T15:22:33.445Z,1.00
2023-03-21T15:27:19.977Z,1.00
2023-03-21T15:32:06.278Z,1.00
2023-03-21T15:37:09.423Z,1.00
2023-03-21T15:42:11.542Z,1.00
2023-03-21T15:46:59.791Z,1.00
2023-03-21T15:52:04.030Z,1.00
2023-03-21T15:56:54.994Z,1.00
2023-03-21T16:01:46.993Z,1.00
2023-03-21T16:06:44.851Z,1.00
2023-03-21T16:11:47.189Z,1.00
2023-03-21T16:16:36.014Z,1.00
2023-03-21T16:21:26.631Z,1.00
2023-03-21T16:26:16.821Z,1.00
2023-03-21T16:31:01.882Z,1.00
2023-03-21T16:35:50.199Z,1.00
2023-03-21T16:40:41.015Z,1.00
2023-03-21T16:45:24.797Z,1.00
2023-03-21T16:50:32.415Z,1.00
2023-03-21T16:55:16.142Z,1.00
2023-03-21T17:00:03.814Z,1.00
2023-03-21T17:04:53.002Z,1.00
2023-03-21T17:09:40.220Z,1.00
2023-03-21T17:14:28.870Z,1.00
2023-03-21T17:19:18.999Z,1.00
2023-03-21T17:24:03.537Z,1.00
2023-03-21T17:28:58.267Z,1.00
2023-03-21T17:33:41.705Z,1.00
2023-03-21T17:38:31.480Z,1.00
2023-03-21T17:43:20.803Z,1.00
2023-03-21T17:48:20.681Z,1.00
2023-03-21T17:53:09.260Z,1.00
2023-03-21T17:57:56.633Z,1.00
2023-03-21T18:02:44.950Z,1.00
2023-03-21T18:08:06.113Z,1.00
2023-03-21T18:12:37.429Z,1.00
2023-03-21T18:17:26.963Z,1.00
2023-03-21T18:22:13.569Z,1.00
2023-03-21T18:27:01.477Z,1.00
2023-03-21T18:32:04.403Z,1.00
2023-03-21T18:36:55.258Z,1.00
2023-03-21T18:41:41.816Z,1.00
2023-03-21T18:46:30.453Z,1.00
2023-03-21T18:51:17.726Z,1.00
2023-03-21T18:56:10.225Z,1.00
2023-03-21T19:00:54.468Z,1.00
2023-03-21T19:05:41.013Z,1.00
2023-03-21T19:10:30.283Z,6.60
2023-03-21T19:15:17.992Z,49.10
2023-03-21T19:20:04.376Z,73.80
2023-03-21T19:24:53.245Z,88.70
2023-03-21T19:29:39.658Z,46.20
2023-03-21T19:34:31.884Z,9.90
2023-03-21T19:39:16.433Z,1.00
2023-03-21T19:44:03.716Z,1.00
2023-03-21T19:48:56.199Z,1.00
2023-03-21T19:53:40.705Z,1.00
2023-03-21T19:58:32.986Z,1.00
2023-03-21T20:03:19.719Z,1.00
2023-03-21T20:08:04.019Z,1.00
2023-03-21T20:12:52.405Z,1.00
2023-03-21T20:17:41.889Z,1.00
2023-03-21T20:23:03.195Z,1.00
2023-03-21T20:28:10.941Z,1.00
2023-03-21T20:33:09.194Z,1.00
2023-03-21T20:37:59.710Z,1.00
2023-03-21T20:42:48.542Z,1.00
2023-03-21T20:47:32.987Z,1.00
2023-03-21T20:57:27.245Z,1.00
2023-03-21T21:02:11.369Z,1.00
2023-03-21T21:07:12.709Z,1.00
2023-03-21T21:12:06.965Z,1.00
2023-03-21T21:16:55.715Z,1.00
2023-03-21T21:21:41.994Z,1.00
2023-03-21T21:26:27.807Z,1.00
2023-03-21T21:31:21.181Z,1.00
2023-03-21T21:36:07.220Z,1.00
2023-03-21T21:40:54.656Z,1.00
2023-03-21T21:45:43.576Z,1.00
2023-03-21T21:50:27.007Z,1.00
2023-03-21T21:55:18.024Z,1.00
2023-03-21T22:00:06.654Z,1.00
2023-03-21T22:05:09.611Z,1.00
2023-03-21T22:09:56.257Z,1.00
2023-03-21T22:14:44.979Z,1.00
2023-03-21T22:19:34.295Z,1.00
2023-03-21T22:24:19.416Z,1.00
2023-03-21T22:29:08.319Z,1.00
2023-03-21T22:34:02.591Z,1.00
2023-03-21T22:38:47.954Z,1.00
2023-03-21T22:43:34.545Z,4.10
2023-03-21T22:48:20.522Z,23.60
2023-03-21T22:53:08.575Z,29.90
2023-03-21T22:57:55.809Z,72.70
2023-03-21T23:02:45.969Z,99.90
2023-03-21T23:07:32.853Z,99.90
2023-03-21T23:12:21.706Z,99.90
2023-03-21T23:17:10.316Z,99.90
2023-03-21T23:21:56.933Z,99.90
2023-03-21T23:26:44.121Z,99.90
2023-03-21T23:31:38.480Z,99.90
2023-03-21T23:36:23.035Z,99.90
2023-03-21T23:41:08.767Z,1.00
2023-03-21T23:45:59.698Z,1.00
2023-03-21T23:50:47.925Z,1.00
2023-03-21T23:55:52.157Z,1.00
